ILM weather

Wilmington International Airport
Wilmington, North Carolina, United States

Public forecast

Using degrees Fahrenheit for public forecast. Weather courtesy of forecast.io.

METAR (pilot weather report)

Retrieved 2019/07/22 23:53 UTC (21 minutes ago):

KILM 222353Z 20011KT 10SM CLR 29/22 A2996 RMK AO2 SLP144 T02940217 10344 20294 53005

TAF (pilot weather forecast)

Forecast is more than 12 hours old.

Retrieved 2019/07/22 00:22 UTC (24 hours ago):

TAF KILM 222320Z 2300/2324 20012G18KT P6SM SCT050 FM230300 22009KT P6SM SCT050 SCT250 FM231500 21011G17KT P6SM VCSH SCT050 BKN250 FM232000 20014G22KT P6SM VCTS SCT040CB TEMPO 2322/2324 25020G35KT 1SM +TSRA BKN030CB